Washington, District of Columbia
Traffic Map
Current Weather Conditions
Washington, District of Columbia
Scattered Clouds
Scattered Clouds
29°
Feels Like: 31°
Wind Chill: 29° Ceiling: Unl
Heat Index: 31° Visibility: 10mi
Dew Point: 20° Wind: 7mph
Humidity: 57% Direction: 40° (NE)
Pressure: 30in Gusts: 0mph
Raw Report DataKDCA 241252Z 04006KT 10SM SCT250 29/20 A3000 RMK AO2 SLP158 T02940200
Traffic Incident Summary
Active as of:
Severity:
Category:
InformationThere was an issue retrieving the traffic information for this location. Please try a different location or try again shortly.
Advertisements
Track Severe Weather on mobile